Time;durP1;ratioP1;P1;durP2;ratioP2;P2;SDS_P1;SDS_P2;PMS_P1;PMS_P2;Temp;Humidity;BMP_temperature;BMP_pressure;BME280_temperature;BME280_humidity;BME280_pressure;Samples;Min_cycle;Max_cycle;Signal;HPM_P1;HPM_P2
2023/12/09 03:06:26;;;;;;;;;;;;;;;7.94;82.97;99737.38;1090643;46;1827;-81
2023/12/09 03:07:34;;;;;;;;;;;;;;;7.91;83.20;99737.69;1088829;54;997;-79
2023/12/09 03:09:04;;;;;;;;;;;;;;;7.94;83.10;99737.38;1088453;46;990;-80
2023/12/09 03:10:05;;;;;;;;;;;;;;;7.95;82.81;99725.75;1088533;54;942;-81
2023/12/09 03:11:09;;;;;;;;;;;;;;;7.98;82.98;99724.66;1088497;54;885;-81
2023/12/09 03:12:11;;;;;;;;;;;;;;;7.97;83.00;99726.47;1087709;54;943;-77
2023/12/09 03:13:29;;;;;;;;;;;;;;;7.93;83.14;99726.88;1087645;54;1173;-80
2023/12/09 03:14:30;;;;;;;;;;;;;;;7.91;83.01;99718.19;1087392;54;1015;-78
2023/12/09 03:15:35;;;;;;;;;;;;;;;7.93;83.03;99719.75;1087486;54;1327;-78
2023/12/09 03:16:41;;;;;;;;;;;;;;;7.96;82.84;99711.47;1088016;54;1166;-82
2023/12/09 03:17:52;;;;;;;;;;;;;;;8.00;82.89;99716.53;1088192;47;1149;-78
2023/12/09 03:18:53;;;;;;;;;;;;;;;8.00;82.90;99721.88;1088124;54;1166;-81
2023/12/09 03:20:14;;;;;;;;;;;;;;;8.07;82.66;99717.66;1088135;47;1062;-79
2023/12/09 03:21:15;;;;;;;;;;;;;;;8.13;82.50;99717.13;1088120;54;1242;-79
2023/12/09 03:22:19;;;;;;;;;;;;;;;8.17;82.33;99709.72;1087976;54;1161;-80
2023/12/09 03:23:23;;;;;;;;;;;;;;;8.23;82.29;99717.97;1087646;54;1183;-80
2023/12/09 03:24:27;;;;;;;;;;;;;;;8.27;82.01;99714.06;1087273;47;1181;-80
2023/12/09 03:25:28;;;;;;;;;;;;;;;8.26;81.88;99715.03;1087533;54;1318;-80
2023/12/09 03:26:31;;;;;;;;;;;;;;;8.32;81.63;99712.78;1087473;47;972;-81
2023/12/09 03:27:32;;;;;;;;;;;;;;;8.26;81.65;99712.38;1087962;54;1195;-83
2023/12/09 03:28:33;;;;;;;;;;;;;;;8.20;82.26;99704.09;1088416;54;1130;-81
2023/12/09 03:29:38;;;;;;;;;;;;;;;8.20;82.01;99694.31;1088181;47;1100;-81
2023/12/09 03:30:38;;;;;;;;;;;;;;;8.12;81.83;99705.63;1087545;54;1524;-80
2023/12/09 03:31:42;;;;;;;;;;;;;;;8.09;82.03;99689.94;1087415;54;1154;-80
2023/12/09 03:32:44;;;;;;;;;;;;;;;8.10;82.03;99696.09;1087309;54;1152;-79
2023/12/09 03:33:50;;;;;;;;;;;;;;;8.08;81.95;99698.06;1087269;54;1046;-80
2023/12/09 03:34:51;;;;;;;;;;;;;;;8.04;82.22;99700.16;1087364;47;1110;-79
2023/12/09 03:35:54;;;;;;;;;;;;;;;8.09;81.91;99691.75;1087192;47;1312;-79
2023/12/09 03:37:01;;;;;;;;;;;;;;;8.06;81.86;99697.34;1087399;54;1167;-79
2023/12/09 03:38:04;;;;;;;;;;;;;;;8.13;81.76;99695.81;1087143;47;1150;-80
2023/12/09 03:39:09;;;;;;;;;;;;;;;8.11;81.92;99703.13;1087342;54;1167;-79
2023/12/09 03:40:13;;;;;;;;;;;;;;;8.07;82.33;99713.22;1087288;54;1074;-80
2023/12/09 03:41:15;;;;;;;;;;;;;;;8.11;82.32;99700.47;1087060;54;1854;-80
2023/12/09 03:42:19;;;;;;;;;;;;;;;8.17;82.00;99699.91;1087338;54;1162;-80
2023/12/09 03:43:20;;;;;;;;;;;;;;;8.21;81.71;99700.47;1087505;47;1154;-80
2023/12/09 03:44:24;;;;;;;;;;;;;;;8.20;81.96;99696.97;1087369;47;1054;-79
2023/12/09 03:45:25;;;;;;;;;;;;;;;8.25;81.55;99694.72;1087264;47;1268;-80
2023/12/09 03:46:29;;;;;;;;;;;;;;;8.22;81.82;99700.31;1087474;54;1083;-81
2023/12/09 03:47:29;;;;;;;;;;;;;;;8.10;82.10;99701.44;1087212;54;1067;-81
2023/12/09 03:48:33;;;;;;;;;;;;;;;8.11;81.86;99695.13;1087172;47;1261;-78
2023/12/09 03:49:34;;;;;;;;;;;;;;;8.09;82.07;99699.75;1087365;47;1143;-81
2023/12/09 03:50:34;;;;;;;;;;;;;;;8.02;81.95;99706.59;1087160;54;1194;-80
2023/12/09 03:51:38;;;;;;;;;;;;;;;8.02;82.05;99703.94;1087235;54;1170;-79
2023/12/09 03:52:41;;;;;;;;;;;;;;;8.09;81.96;99705.06;1087156;47;1218;-78
2023/12/09 03:55:26;;;;;;;;;;;;;;;8.17;81.42;99699.06;1087219;47;1008;-79
2023/12/09 03:56:34;;;;;;;;;;;;;;;8.14;81.41;99708.16;1087132;54;1067;-79
2023/12/09 03:57:37;;;;;;;;;;;;;;;8.13;81.55;99703.78;1087927;54;1168;-80
2023/12/09 03:58:38;;;;;;;;;;;;;;;8.09;81.77;99699.75;1087898;47;1126;-80
2023/12/09 03:59:49;;;;;;;;;;;;;;;8.07;81.80;99707.88;1088337;54;1123;-81
2023/12/09 04:00:53;;;;;;;;;;;;;;;8.19;81.27;99713.06;1088305;47;1893;-80
2023/12/09 04:01:58;;;;;;;;;;;;;;;8.21;81.24;99709.31;1088318;54;1304;-80
2023/12/09 04:02:59;;;;;;;;;;;;;;;8.18;81.50;99708.72;1088137;47;989;-79
2023/12/09 04:04:04;;;;;;;;;;;;;;;8.16;81.38;99706.19;1088288;54;1091;-80
2023/12/09 04:05:05;;;;;;;;;;;;;;;8.19;81.08;99710.41;1088693;54;1193;-80
2023/12/09 04:06:06;;;;;;;;;;;;;;;8.24;80.90;99708.19;1088654;54;1206;-82
2023/12/09 04:07:10;;;;;;;;;;;;;;;8.25;81.09;99702.72;1088365;46;1198;-81
2023/12/09 04:09:26;;;;;;;;;;;;;;;8.15;81.01;99701.03;1088639;54;932;-80
2023/12/09 04:10:29;;;;;;;;;;;;;;;8.08;81.46;99703.38;1088569;54;1178;-81
2023/12/09 04:11:35;;;;;;;;;;;;;;;8.04;81.50;99704.63;1088457;54;1146;-80
2023/12/09 04:12:36;;;;;;;;;;;;;;;8.03;81.43;99710.94;1088325;54;983;-79
2023/12/09 04:13:42;;;;;;;;;;;;;;;8.02;81.56;99714.59;1088035;54;1091;-79
2023/12/09 04:14:44;;;;;;;;;;;;;;;7.95;81.92;99720.44;1087838;54;1186;-78
2023/12/09 04:15:49;;;;;;;;;;;;;;;7.95;82.07;99709.78;1087606;47;1290;-79
2023/12/09 04:16:50;;;;;;;;;;;;;;;7.95;82.22;99712.44;1087764;46;1064;-79
2023/12/09 04:17:55;;;;;;;;;;;;;;;7.92;81.80;99714.53;1088500;54;934;-81
2023/12/09 04:18:55;;;;;;;;;;;;;;;7.92;81.84;99709.22;1088465;54;1127;-81
2023/12/09 04:19:59;;;;;;;;;;;;;;;7.96;81.67;99708.81;1088376;47;910;-81
2023/12/09 04:20:59;;;;;;;;;;;;;;;7.95;81.85;99706.31;1088366;47;1837;-81
2023/12/09 04:22:03;;;;;;;;;;;;;;;7.93;81.77;99694.94;1088540;54;1000;-79
2023/12/09 04:23:04;;;;;;;;;;;;;;;7.89;82.03;99690.84;1088146;47;1044;-80
2023/12/09 04:24:08;;;;;;;;;;;;;;;7.90;81.91;99701.38;1088319;54;1091;-80
2023/12/09 04:25:09;;;;;;;;;;;;;;;7.88;82.28;99708.66;1088260;46;1004;-81
2023/12/09 04:26:15;;;;;;;;;;;;;;;7.86;82.11;99720.41;1088111;47;1313;-79
2023/12/09 04:27:16;;;;;;;;;;;;;;;7.87;82.52;99712.28;1088099;47;992;-80
2023/12/09 04:28:20;;;;;;;;;;;;;;;7.94;82.29;99717.91;1088235;54;1170;-80
2023/12/09 04:29:20;;;;;;;;;;;;;;;8.03;81.96;99718.94;1088071;54;1012;-80
2023/12/09 04:30:24;;;;;;;;;;;;;;;8.03;82.13;99732.25;1088048;46;1059;-80
2023/12/09 04:31:25;;;;;;;;;;;;;;;8.03;81.85;99725.09;1088173;47;1031;-80
2023/12/09 04:32:31;;;;;;;;;;;;;;;8.12;81.76;99721.59;1088111;47;1032;-81
2023/12/09 04:33:32;;;;;;;;;;;;;;;8.09;81.37;99713.06;1088263;54;1100;-80
2023/12/09 04:34:38;;;;;;;;;;;;;;;8.07;81.46;99723.84;1088205;54;1115;-80
2023/12/09 04:35:38;;;;;;;;;;;;;;;8.02;81.53;99727.91;1087444;54;1302;-78
2023/12/09 04:36:42;;;;;;;;;;;;;;;8.03;81.65;99727.75;1087793;54;1152;-80
2023/12/09 04:37:43;;;;;;;;;;;;;;;8.05;81.51;99719.63;1087834;54;1180;-79
2023/12/09 04:38:48;;;;;;;;;;;;;;;8.01;81.38;99720.88;1087408;54;1171;-79
2023/12/09 04:39:57;;;;;;;;;;;;;;;8.00;81.32;99727.19;1087452;47;1206;-78
2023/12/09 04:41:01;;;;;;;;;;;;;;;7.97;81.39;99723.81;1087544;54;1851;-77
2023/12/09 04:42:05;;;;;;;;;;;;;;;7.93;81.36;99722.41;1087544;54;1067;-78
2023/12/09 04:43:09;;;;;;;;;;;;;;;7.90;81.50;99717.34;1087570;54;1206;-79
2023/12/09 04:44:10;;;;;;;;;;;;;;;7.87;81.42;99719.44;1087547;47;1104;-79
2023/12/09 04:45:15;;;;;;;;;;;;;;;7.81;81.67;99728.81;1087607;54;1099;-78
2023/12/09 04:46:17;;;;;;;;;;;;;;;7.76;81.94;99715.06;1087555;54;1107;-78
2023/12/09 04:47:24;;;;;;;;;;;;;;;7.79;81.66;99725.44;1087662;46;1326;-79
2023/12/09 04:48:25;;;;;;;;;;;;;;;7.78;81.58;99715.75;1087645;54;991;-78
2023/12/09 04:49:28;;;;;;;;;;;;;;;7.77;81.86;99716.75;1087427;47;1166;-79
2023/12/09 04:50:29;;;;;;;;;;;;;;;7.74;81.76;99717.84;1087352;54;1087;-78
2023/12/09 04:51:32;;;;;;;;;;;;;;;7.71;82.15;99722.59;1087466;47;1028;-78
2023/12/09 04:52:46;;;;;;;;;;;;;;;7.67;81.95;99726.50;1087587;54;1149;-78
2023/12/09 04:53:50;;;;;;;;;;;;;;;7.64;82.11;99723.16;1087944;54;1099;-79
2023/12/09 04:54:51;;;;;;;;;;;;;;;7.62;82.44;99727.75;1087672;46;1095;-78
2023/12/09 04:55:55;;;;;;;;;;;;;;;7.64;82.03;99717.84;1087589;54;1456;-80
2023/12/09 04:56:56;;;;;;;;;;;;;;;7.67;82.02;99724.69;1087750;46;1110;-78
2023/12/09 04:58:03;;;;;;;;;;;;;;;7.61;82.42;99712.78;1087923;54;1182;-79
2023/12/09 04:59:13;;;;;;;;;;;;;;;7.61;82.46;99702.13;1087754;47;1095;-79
2023/12/09 05:00:26;;;;;;;;;;;;;;;7.66;82.21;99720.34;1088158;46;1131;-78
2023/12/09 05:01:28;;;;;;;;;;;;;;;7.69;82.02;99713.91;1088096;54;1889;-80
2023/12/09 05:02:32;;;;;;;;;;;;;;;7.61;82.46;99714.56;1088047;46;1047;-77
2023/12/09 05:03:34;;;;;;;;;;;;;;;7.63;82.58;99708.16;1087496;47;1103;-78
2023/12/09 05:04:37;;;;;;;;;;;;;;;7.60;82.48;99708.41;1087721;47;1048;-79
2023/12/09 05:05:39;;;;;;;;;;;;;;;7.64;82.32;99701.88;1088056;54;1256;-81
2023/12/09 05:06:43;;;;;;;;;;;;;;;7.60;82.50;99697.78;1088681;54;1055;-81
2023/12/09 05:07:45;;;;;;;;;;;;;;;7.63;82.69;99697.53;1088254;46;987;-82
2023/12/09 05:08:48;;;;;;;;;;;;;;;7.68;82.80;99696.25;1088616;54;987;-80
2023/12/09 05:09:49;;;;;;;;;;;;;;;7.69;82.56;99697.94;1088279;46;964;-78
2023/12/09 05:10:54;;;;;;;;;;;;;;;7.69;82.57;99689.97;1087186;47;989;-78
2023/12/09 05:11:55;;;;;;;;;;;;;;;7.69;82.55;99690.81;1087226;47;996;-79
2023/12/09 05:12:59;;;;;;;;;;;;;;;7.69;82.46;99697.94;1087121;47;1041;-78
2023/12/09 05:14:03;;;;;;;;;;;;;;;7.69;82.55;99689.97;1088248;54;1088;-82
2023/12/09 05:15:10;;;;;;;;;;;;;;;7.70;82.62;99689.00;1088623;54;1119;-80
2023/12/09 05:16:12;;;;;;;;;;;;;;;7.70;82.54;99691.66;1087421;54;1435;-79
2023/12/09 05:17:16;;;;;;;;;;;;;;;7.73;82.51;99689.56;1087591;46;1155;-78
2023/12/09 05:18:17;;;;;;;;;;;;;;;7.75;82.46;99695.59;1087413;54;1045;-79
2023/12/09 05:19:21;;;;;;;;;;;;;;;7.76;82.57;99685.78;1087881;47;1072;-79
2023/12/09 05:20:22;;;;;;;;;;;;;;;7.78;82.70;99681.16;1087927;54;1120;-78
2023/12/09 05:21:25;;;;;;;;;;;;;;;7.79;82.56;99677.53;1087118;54;1849;-79
2023/12/09 05:22:26;;;;;;;;;;;;;;;7.81;82.52;99683.56;1086945;54;1092;-78
2023/12/09 05:23:30;;;;;;;;;;;;;;;7.83;82.55;99686.94;1086685;47;1107;-78
2023/12/09 05:24:31;;;;;;;;;;;;;;;7.81;82.56;99686.22;1085997;47;1487;-78
2023/12/09 05:25:34;;;;;;;;;;;;;;;7.88;82.25;99690.03;1086390;47;1313;-78
2023/12/09 05:26:35;;;;;;;;;;;;;;;7.90;82.13;99680.09;1086924;54;1092;-78
2023/12/09 05:27:38;;;;;;;;;;;;;;;7.88;81.90;99692.69;1087089;47;1044;-79
2023/12/09 05:28:42;;;;;;;;;;;;;;;7.88;82.39;99686.53;1087446;54;1171;-82
2023/12/09 05:29:45;;;;;;;;;;;;;;;7.89;82.24;99688.19;1087774;47;1091;-78
2023/12/09 05:30:49;;;;;;;;;;;;;;;7.88;82.28;99679.38;1086411;47;1147;-78
2023/12/09 05:31:51;;;;;;;;;;;;;;;7.88;82.39;99676.72;1086993;47;1176;-78
2023/12/09 05:32:52;;;;;;;;;;;;;;;7.90;81.96;99680.09;1086316;47;1105;-78
2023/12/09 05:33:55;;;;;;;;;;;;;;;7.90;82.08;99684.56;1086001;47;1099;-79
2023/12/09 05:34:56;;;;;;;;;;;;;;;7.89;81.98;99678.41;1086642;54;1525;-79
2023/12/09 05:35:56;;;;;;;;;;;;;;;7.89;82.11;99677.53;1087076;54;1446;-79
2023/12/09 05:37:00;;;;;;;;;;;;;;;7.87;82.42;99675.03;1087472;54;1182;-79
2023/12/09 05:38:00;;;;;;;;;;;;;;;7.89;82.28;99675.75;1087534;47;1073;-79
2023/12/09 05:39:02;;;;;;;;;;;;;;;7.96;81.88;99668.88;1087586;54;1122;-79
2023/12/09 05:40:06;;;;;;;;;;;;;;;8.03;81.71;99663.03;1086920;54;1074;-78
2023/12/09 05:41:07;;;;;;;;;;;;;;;8.04;81.56;99660.22;1088318;54;1838;-80
2023/12/09 05:42:11;;;;;;;;;;;;;;;8.09;81.32;99651.81;1088334;47;1177;-78
2023/12/09 05:43:12;;;;;;;;;;;;;;;8.06;81.39;99655.59;1087820;54;988;-79
2023/12/09 05:44:18;;;;;;;;;;;;;;;8.04;81.58;99659.38;1087316;54;1008;-79
2023/12/09 05:45:22;;;;;;;;;;;;;;;8.03;81.31;99658.53;1087636;54;1392;-79
2023/12/09 05:46:28;;;;;;;;;;;;;;;8.02;81.56;99666.66;1087487;54;1146;-79
2023/12/09 05:47:30;;;;;;;;;;;;;;;7.97;81.52;99662.59;1087472;54;1123;-79
2023/12/09 05:48:34;;;;;;;;;;;;;;;8.02;81.66;99661.34;1087446;54;1130;-78
2023/12/09 05:49:35;;;;;;;;;;;;;;;8.02;81.55;99659.50;1087023;54;1174;-78
2023/12/09 05:50:38;;;;;;;;;;;;;;;7.95;81.70;99656.56;1087020;54;1150;-78
2023/12/09 05:51:45;;;;;;;;;;;;;;;8.04;81.27;99654.03;1087366;54;1115;-79
2023/12/09 05:52:49;;;;;;;;;;;;;;;8.08;80.84;99661.63;1086905;54;1179;-79
2023/12/09 05:53:51;;;;;;;;;;;;;;;8.10;80.82;99659.66;1087615;46;1166;-79
2023/12/09 05:54:54;;;;;;;;;;;;;;;8.10;80.50;99669.47;1086845;54;1205;-78
2023/12/09 05:55:55;;;;;;;;;;;;;;;8.12;80.29;99662.22;1086974;47;1369;-78
2023/12/09 05:57:00;;;;;;;;;;;;;;;8.12;80.19;99665.69;1087422;46;1142;-80
2023/12/09 05:58:02;;;;;;;;;;;;;;;8.13;80.44;99669.19;1087892;54;1178;-78
2023/12/09 05:59:06;;;;;;;;;;;;;;;8.19;80.13;99671.31;1088113;54;1126;-78
2023/12/09 06:01:43;;;;;;;;;;;;;;;8.28;79.86;99667.81;1088630;47;1853;-80
2023/12/09 06:02:44;;;;;;;;;;;;;;;8.27;79.81;99673.25;1088630;54;1045;-80
2023/12/09 06:03:50;;;;;;;;;;;;;;;8.27;79.68;99665.28;1088731;54;963;-80
2023/12/09 06:04:52;;;;;;;;;;;;;;;8.31;79.56;99660.53;1088474;47;926;-81
2023/12/09 06:05:57;;;;;;;;;;;;;;;8.30;79.16;99659.69;1088303;46;1313;-81
2023/12/09 06:06:58;;;;;;;;;;;;;;;8.28;79.34;99662.50;1088203;54;902;-79
2023/12/09 06:08:01;;;;;;;;;;;;;;;8.24;79.67;99662.91;1087953;54;1167;-79
2023/12/09 06:09:02;;;;;;;;;;;;;;;8.27;79.41;99666.13;1087196;54;1184;-78
2023/12/09 06:10:06;;;;;;;;;;;;;;;8.31;79.25;99671.19;1087186;47;1060;-78
2023/12/09 06:11:07;;;;;;;;;;;;;;;8.33;79.25;99669.22;1086865;54;1179;-79
2023/12/09 06:12:11;;;;;;;;;;;;;;;8.34;78.72;99671.75;1086805;47;1521;-79
2023/12/09 06:13:11;;;;;;;;;;;;;;;8.37;78.53;99659.97;1086669;54;1135;-79
2023/12/09 06:14:15;;;;;;;;;;;;;;;8.40;78.73;99655.19;1086728;54;1162;-79
2023/12/09 06:15:15;;;;;;;;;;;;;;;8.39;78.38;99653.50;1086698;54;1358;-78
2023/12/09 06:16:19;;;;;;;;;;;;;;;8.40;78.34;99651.72;1086553;47;1083;-79
2023/12/09 06:17:22;;;;;;;;;;;;;;;8.40;78.48;99646.38;1086385;47;1111;-78
2023/12/09 06:18:25;;;;;;;;;;;;;;;8.35;78.58;99657.44;1086306;47;1020;-78
2023/12/09 06:19:26;;;;;;;;;;;;;;;8.42;78.17;99655.03;1086242;47;1132;-79
2023/12/09 06:20:29;;;;;;;;;;;;;;;8.46;77.85;99656.47;1086274;54;1196;-78
2023/12/09 06:21:30;;;;;;;;;;;;;;;8.46;77.86;99659.13;1086315;47;1838;-79
2023/12/09 06:22:34;;;;;;;;;;;;;;;8.48;77.75;99651.00;1086051;47;1161;-80
2023/12/09 06:23:41;;;;;;;;;;;;;;;8.47;77.59;99644.84;1086730;54;1098;-78
2023/12/09 06:24:45;;;;;;;;;;;;;;;8.50;77.44;99652.53;1087320;47;947;-78
2023/12/09 06:25:46;;;;;;;;;;;;;;;8.48;77.41;99651.00;1087685;54;1311;-79
2023/12/09 06:26:49;;;;;;;;;;;;;;;8.48;77.56;99651.00;1087116;47;1086;-78
2023/12/09 06:27:50;;;;;;;;;;;;;;;8.42;77.49;99645.25;1086890;47;1374;-79
2023/12/09 06:28:53;;;;;;;;;;;;;;;8.40;77.62;99649.88;1087055;54;1089;-78
2023/12/09 06:29:54;;;;;;;;;;;;;;;8.38;77.48;99645.66;1086813;54;1039;-78
2023/12/09 06:30:57;;;;;;;;;;;;;;;8.38;77.48;99648.34;1087086;54;1447;-79
2023/12/09 06:31:58;;;;;;;;;;;;;;;8.40;77.74;99655.19;1086764;47;1044;-80
2023/12/09 06:33:05;;;;;;;;;;;;;;;8.31;77.84;99661.38;1086928;54;1111;-79
2023/12/09 06:34:06;;;;;;;;;;;;;;;8.34;77.92;99646.91;1087267;47;1650;-79
2023/12/09 06:35:09;;;;;;;;;;;;;;;8.36;77.86;99643.13;1087908;47;1213;-79
2023/12/09 06:36:10;;;;;;;;;;;;;;;8.37;77.63;99636.00;1087628;46;1388;-79
2023/12/09 06:37:14;;;;;;;;;;;;;;;8.32;77.89;99635.56;1087353;47;1167;-78
2023/12/09 06:38:15;;;;;;;;;;;;;;;8.36;78.00;99632.47;1087163;54;999;-79
2023/12/09 06:39:17;;;;;;;;;;;;;;;8.40;77.82;99633.88;1087259;47;1080;-78
2023/12/09 06:40:20;;;;;;;;;;;;;;;8.42;77.84;99631.06;1087457;54;1091;-78
2023/12/09 06:41:21;;;;;;;;;;;;;;;8.32;77.89;99631.09;1087213;54;1021;-79
2023/12/09 06:42:25;;;;;;;;;;;;;;;8.37;78.07;99628.84;1086531;54;1919;-79
2023/12/09 06:43:26;;;;;;;;;;;;;;;8.34;77.76;99630.94;1086706;47;1084;-79
2023/12/09 06:44:30;;;;;;;;;;;;;;;8.33;77.97;99638.09;1087104;47;1076;-79
2023/12/09 06:45:31;;;;;;;;;;;;;;;8.33;78.02;99634.56;1087023;47;1353;-79
2023/12/09 06:46:38;;;;;;;;;;;;;;;8.37;77.72;99636.00;1087216;54;1391;-79
2023/12/09 06:47:39;;;;;;;;;;;;;;;8.39;77.60;99626.88;1087347;47;1136;-80
2023/12/09 06:48:45;;;;;;;;;;;;;;;8.40;77.64;99639.22;1087011;54;1557;-79
2023/12/09 06:49:48;;;;;;;;;;;;;;;8.44;77.63;99631.78;1087680;47;1325;-80
2023/12/09 06:50:52;;;;;;;;;;;;;;;8.40;77.33;99633.06;1087586;54;1153;-78
2023/12/09 06:51:54;;;;;;;;;;;;;;;8.37;77.59;99622.69;1087480;54;1161;-78
2023/12/09 06:52:58;;;;;;;;;;;;;;;8.43;77.60;99628.28;1087815;47;1016;-79
2023/12/09 06:54:00;;;;;;;;;;;;;;;8.43;77.51;99633.63;1087955;54;1004;-79
2023/12/09 06:55:10;;;;;;;;;;;;;;;8.49;77.32;99636.72;1087607;54;1062;-79
2023/12/09 06:56:17;;;;;;;;;;;;;;;8.49;77.09;99626.06;1087765;47;1371;-79
2023/12/09 06:57:22;;;;;;;;;;;;;;;8.57;76.81;99628.84;1087992;54;1222;-80
2023/12/09 06:58:22;;;;;;;;;;;;;;;8.51;76.97;99624.09;1087697;54;1116;-79
2023/12/09 06:59:26;;;;;;;;;;;;;;;8.49;76.82;99626.91;1088135;54;956;-79
2023/12/09 07:00:27;;;;;;;;;;;;;;;8.49;77.00;99626.06;1088020;54;1112;-80
2023/12/09 07:01:30;;;;;;;;;;;;;;;8.46;77.22;99627.16;1087578;54;924;-79
2023/12/09 07:02:32;;;;;;;;;;;;;;;8.48;76.87;99625.22;1087473;54;1864;-78
2023/12/09 07:03:37;;;;;;;;;;;;;;;8.38;77.11;99624.38;1087404;47;1012;-79
2023/12/09 07:04:41;;;;;;;;;;;;;;;8.35;77.47;99619.31;1087653;54;1173;-80
2023/12/09 07:05:44;;;;;;;;;;;;;;;8.34;77.10;99620.28;1087031;54;1965;-77
2023/12/09 07:06:44;;;;;;;;;;;;;;;8.38;77.16;99616.38;1087355;46;1083;-81
2023/12/09 07:07:48;;;;;;;;;;;;;;;8.43;76.90;99619.44;1087981;54;1007;-78
2023/12/09 07:08:50;;;;;;;;;;;;;;;8.43;77.04;99614.09;1087135;54;1173;-79
2023/12/09 07:09:55;;;;;;;;;;;;;;;8.46;76.81;99619.16;1087763;54;1110;-79
2023/12/09 07:10:59;;;;;;;;;;;;;;;8.46;76.78;99615.66;1087738;54;1086;-78
2023/12/09 07:12:03;;;;;;;;;;;;;;;8.48;76.62;99619.03;1087597;54;1043;-77
2023/12/09 07:13:04;;;;;;;;;;;;;;;8.42;76.69;99623.94;1087685;47;1132;-80
2023/12/09 07:14:09;;;;;;;;;;;;;;;8.48;76.70;99622.56;1087805;54;983;-80
2023/12/09 07:15:09;;;;;;;;;;;;;;;8.35;77.00;99625.50;1087088;47;1157;-80
2023/12/09 07:16:13;;;;;;;;;;;;;;;8.39;77.06;99628.72;1087524;47;1246;-81
2023/12/09 07:17:14;;;;;;;;;;;;;;;8.42;76.69;99621.28;1086551;54;1122;-79
2023/12/09 07:18:17;;;;;;;;;;;;;;;8.36;76.87;99632.47;1087182;54;1107;-80
2023/12/09 07:19:18;;;;;;;;;;;;;;;8.33;77.01;99627.44;1087525;54;1197;-77
2023/12/09 07:20:24;;;;;;;;;;;;;;;8.34;76.87;99629.13;1087639;54;1070;-79
2023/12/09 07:21:25;;;;;;;;;;;;;;;8.30;77.38;99635.72;1087938;54;1375;-79
2023/12/09 07:22:29;;;;;;;;;;;;;;;8.24;77.13;99631.78;1087944;54;1870;-79
2023/12/09 07:23:30;;;;;;;;;;;;;;;8.21;77.63;99633.88;1088085;47;915;-79
2023/12/09 07:24:33;;;;;;;;;;;;;;;8.14;77.78;99635.44;1088060;54;848;-79
2023/12/09 07:25:34;;;;;;;;;;;;;;;8.11;77.97;99637.38;1088029;47;1355;-80
2023/12/09 07:26:37;;;;;;;;;;;;;;;8.13;77.77;99637.22;1088114;47;966;-80
2023/12/09 07:27:38;;;;;;;;;;;;;;;8.13;77.68;99637.22;1088134;47;899;-79
2023/12/09 07:28:41;;;;;;;;;;;;;;;8.10;78.46;99633.03;1088201;54;976;-80
2023/12/09 07:29:42;;;;;;;;;;;;;;;8.13;77.93;99637.22;1088166;54;1001;-81
2023/12/09 07:30:46;;;;;;;;;;;;;;;8.16;78.02;99636.97;1088021;47;992;-80
2023/12/09 07:31:47;;;;;;;;;;;;;;;8.16;78.00;99634.31;1088074;54;961;-79
2023/12/09 07:32:50;;;;;;;;;;;;;;;8.22;78.10;99638.22;1088171;54;1079;-80
2023/12/09 07:33:51;;;;;;;;;;;;;;;8.22;77.68;99640.91;1088000;54;1017;-80
2023/12/09 07:35:00;;;;;;;;;;;;;;;8.19;77.72;99636.69;1088109;47;956;-80
2023/12/09 07:36:04;;;;;;;;;;;;;;;8.21;77.87;99639.22;1088193;47;1200;-79
2023/12/09 07:37:09;;;;;;;;;;;;;;;8.22;77.89;99640.91;1087914;47;896;-80
2023/12/09 07:38:10;;;;;;;;;;;;;;;8.20;78.02;99638.38;1088195;54;830;-82
2023/12/09 07:39:13;;;;;;;;;;;;;;;8.25;77.98;99640.63;1088274;46;972;-79
2023/12/09 07:40:15;;;;;;;;;;;;;;;8.31;77.74;99639.22;1088059;54;960;-79
2023/12/09 07:41:19;;;;;;;;;;;;;;;8.26;77.71;99637.81;1088167;54;980;-80
2023/12/09 07:42:20;;;;;;;;;;;;;;;8.24;77.63;99650.41;1087817;54;1864;-79
2023/12/09 07:43:24;;;;;;;;;;;;;;;8.21;77.85;99644.53;1087950;54;1133;-79
2023/12/09 07:44:25;;;;;;;;;;;;;;;8.23;77.77;99653.22;1087948;47;1026;-79
2023/12/09 07:45:28;;;;;;;;;;;;;;;8.12;77.89;99647.06;1087911;54;1371;-78
2023/12/09 07:46:28;;;;;;;;;;;;;;;8.09;78.17;99646.50;1087907;47;923;-79
2023/12/09 07:47:32;;;;;;;;;;;;;;;8.18;77.73;99651.00;1087918;47;969;-78
2023/12/09 07:48:33;;;;;;;;;;;;;;;8.17;77.87;99657.28;1087842;47;1017;-78
2023/12/09 07:49:36;;;;;;;;;;;;;;;8.20;77.57;99654.38;1087896;54;1404;-78
2023/12/09 07:50:37;;;;;;;;;;;;;;;8.26;77.79;99645.81;1087797;47;953;-78
2023/12/09 07:51:44;;;;;;;;;;;;;;;8.21;77.92;99645.41;1087736;47;925;-79
2023/12/09 07:52:45;;;;;;;;;;;;;;;8.24;77.67;99641.59;1087980;47;940;-79
2023/12/09 07:53:48;;;;;;;;;;;;;;;8.18;77.72;99640.34;1087780;47;873;-80
2023/12/09 07:54:49;;;;;;;;;;;;;;;8.21;77.65;99642.72;1087780;47;963;-78
2023/12/09 07:55:52;;;;;;;;;;;;;;;8.21;78.02;99639.22;1087666;47;1336;-79
2023/12/09 07:56:53;;;;;;;;;;;;;;;8.06;78.12;99638.78;1087497;47;1348;-79
2023/12/09 07:57:56;;;;;;;;;;;;;;;8.08;78.33;99636.81;1087707;47;1110;-79
2023/12/09 07:58:56;;;;;;;;;;;;;;;8.14;78.45;99632.78;1087606;54;1091;-78
2023/12/09 08:00:00;;;;;;;;;;;;;;;8.16;78.16;99626.31;1087833;54;1103;-80
2023/12/09 08:01:01;;;;;;;;;;;;;;;8.16;77.99;99636.97;1087519;47;1107;-77
2023/12/09 08:02:05;;;;;;;;;;;;;;;8.12;78.13;99632.91;1087677;54;1864;-79
2023/12/09 08:03:06;;;;;;;;;;;;;;;8.08;78.38;99623.50;1087763;47;1011;-79
2023/12/09 08:04:09;;;;;;;;;;;;;;;8.11;78.44;99625.91;1087515;54;1095;-79
2023/12/09 08:05:10;;;;;;;;;;;;;;;8.16;78.31;99625.50;1087864;54;925;-78
2023/12/09 08:06:11;;;;;;;;;;;;;;;8.10;78.34;99627.72;1087680;54;1406;-78
2023/12/09 08:07:18;;;;;;;;;;;;;;;8.16;78.22;99625.50;1087877;54;991;-80
2023/12/09 08:08:18;;;;;;;;;;;;;;;8.12;78.39;99622.25;1087735;47;1220;-80
2023/12/09 08:09:23;;;;;;;;;;;;;;;8.13;78.11;99623.91;1087462;54;1152;-80
2023/12/09 08:10:24;;;;;;;;;;;;;;;8.24;77.91;99612.31;1087819;54;1027;-80
2023/12/09 08:11:27;;;;;;;;;;;;;;;8.23;77.85;99616.78;1087630;47;1083;-79
2023/12/09 08:12:28;;;;;;;;;;;;;;;8.24;78.03;99617.63;1087702;54;1118;-80
2023/12/09 08:13:31;;;;;;;;;;;;;;;8.23;77.83;99615.94;1087787;47;989;-78
2023/12/09 08:14:33;;;;;;;;;;;;;;;8.19;77.57;99617.19;1087752;47;993;-78
2023/12/09 08:15:33;;;;;;;;;;;;;;;8.20;77.68;99611.75;1087674;47;1397;-78
2023/12/09 08:16:37;;;;;;;;;;;;;;;8.19;77.84;99610.06;1087703;54;1110;-79
2023/12/09 08:17:37;;;;;;;;;;;;;;;8.17;77.60;99612.03;1087554;47;1102;-79
2023/12/09 08:18:38;;;;;;;;;;;;;;;8.21;77.65;99613.44;1087694;54;1075;-78
2023/12/09 08:19:41;;;;;;;;;;;;;;;8.24;77.50;99605.16;1087669;47;1087;-78
2023/12/09 08:20:42;;;;;;;;;;;;;;;8.31;77.47;99615.25;1087586;54;990;-78
2023/12/09 08:21:46;;;;;;;;;;;;;;;8.23;77.18;99605.31;1087633;54;1090;-78
2023/12/09 08:22:50;;;;;;;;;;;;;;;8.37;76.99;99601.38;1087965;54;1848;-79
2023/12/09 08:23:51;;;;;;;;;;;;;;;8.27;77.03;99602.22;1087982;47;896;-80
2023/12/09 08:24:55;;;;;;;;;;;;;;;8.31;76.61;99594.78;1087747;47;1131;-79
2023/12/09 08:25:56;;;;;;;;;;;;;;;8.38;76.91;99598.56;1087929;47;1353;-81
2023/12/09 08:27:00;;;;;;;;;;;;;;;8.42;76.51;99594.63;1088143;54;901;-81
2023/12/09 08:28:02;;;;;;;;;;;;;;;8.40;76.31;99596.59;1088009;54;1008;-79
2023/12/09 08:29:14;;;;;;;;;;;;;;;8.45;76.34;99601.50;1088212;47;969;-81
2023/12/09 08:30:21;;;;;;;;;;;;;;;8.51;76.06;99603.63;1088002;47;875;-80
2023/12/09 08:31:24;;;;;;;;;;;;;;;8.38;76.34;99601.22;1088190;47;964;-80
2023/12/09 08:32:26;;;;;;;;;;;;;;;8.43;76.32;99601.66;1088189;54;1045;-79
2023/12/09 08:33:30;;;;;;;;;;;;;;;8.41;76.41;99600.94;1088168;54;992;-79
2023/12/09 08:34:47;;;;;;;;;;;;;;;8.42;76.05;99604.44;1088288;54;1021;-80
2023/12/09 08:35:51;;;;;;;;;;;;;;;8.41;76.09;99594.75;1088211;47;1297;-79
2023/12/09 08:36:52;;;;;;;;;;;;;;;8.45;75.81;99590.03;1087984;47;978;-81
2023/12/09 08:38:00;;;;;;;;;;;;;;;8.23;76.81;99595.47;1088157;54;930;-80
2023/12/09 08:39:01;;;;;;;;;;;;;;;8.28;76.30;99601.25;1088119;54;966;-79
2023/12/09 08:40:05;;;;;;;;;;;;;;;8.27;76.53;99591.56;1088193;47;1134;-78
2023/12/09 08:41:09;;;;;;;;;;;;;;;8.33;76.30;99594.63;1087956;47;956;-79
2023/12/09 08:42:09;;;;;;;;;;;;;;;8.36;76.43;99602.34;1088118;54;1020;-79
2023/12/09 08:43:13;;;;;;;;;;;;;;;8.36;76.13;99591.69;1088051;47;1864;-78
2023/12/09 08:44:13;;;;;;;;;;;;;;;8.39;76.06;99588.75;1087989;54;924;-81
2023/12/09 08:45:17;;;;;;;;;;;;;;;8.45;76.11;99592.69;1088122;54;929;-80
2023/12/09 08:46:18;;;;;;;;;;;;;;;8.40;76.18;99595.78;1088391;54;1096;-80
2023/12/09 08:47:21;;;;;;;;;;;;;;;8.37;75.71;99596.88;1088287;47;1057;-77
2023/12/09 08:48:23;;;;;;;;;;;;;;;8.46;75.55;99592.53;1088341;54;1007;-80
2023/12/09 08:49:28;;;;;;;;;;;;;;;8.47;75.52;99601.34;1088515;46;962;-79